Time;durP1;ratioP1;P1;durP2;ratioP2;P2;SDS_P1;SDS_P2;PMS_P1;PMS_P2;Temp;Humidity;BMP_temperature;BMP_pressure;BME280_temperature;BME280_humidity;BME280_pressure;Samples;Min_cycle;Max_cycle;Signal;HPM_P1;HPM_P2
2022/11/12 00:01:12;;;;;;;28.67;12.67;;;;;;;10.33;86.66;102311.63;5011260;28;20263;-63
2022/11/12 00:03:40;;;;;;;25.80;13.57;;;;;;;10.34;87.28;102313.31;5018395;28;20654;-64
2022/11/12 00:06:08;;;;;;;29.50;13.33;;;;;;;10.41;86.86;102319.06;5014855;28;20213;-64
2022/11/12 00:08:35;;;;;;;23.93;12.43;;;;;;;10.42;86.47;102312.81;5016018;28;20240;-64
2022/11/12 00:11:03;;;;;;;24.17;12.70;;;;;;;10.39;86.51;102305.06;5014710;28;20244;-63
2022/11/12 00:13:31;;;;;;;24.47;12.50;;;;;;;10.35;86.96;102304.44;5016985;28;20624;-64
2022/11/12 00:15:59;;;;;;;28.03;13.73;;;;;;;10.30;87.29;102305.66;5013087;28;20209;-64
2022/11/12 00:18:28;;;;;;;26.83;12.83;;;;;;;10.36;86.85;102311.44;5022646;28;20216;-64
2022/11/12 00:20:56;;;;;;;25.97;12.20;;;;;;;10.39;87.05;102310.34;5020997;28;20580;-64
2022/11/12 00:23:23;;;;;;;22.80;11.33;;;;;;;10.41;86.99;102314.63;5025165;28;20259;-63
2022/11/12 00:25:58;;;;;;;25.33;12.20;;;;;;;10.39;87.03;102308.56;5015977;28;20247;-63
2022/11/12 00:28:25;;;;;;;29.57;13.33;;;;;;;10.40;86.78;102306.75;5013051;28;20326;-63
2022/11/12 00:30:54;;;;;;;29.27;13.43;;;;;;;10.43;86.98;102306.56;5013123;28;20217;-63
2022/11/12 00:33:21;;;;;;;26.97;13.13;;;;;;;10.40;86.90;102304.09;5015501;28;20291;-64
2022/11/12 00:35:53;;;;;;;27.70;13.17;;;;;;;10.30;87.86;102305.66;5010033;28;20619;-64
2022/11/12 00:38:20;;;;;;;29.73;12.60;;;;;;;10.30;88.20;102300.34;5008288;28;20201;-63
2022/11/12 00:40:48;;;;;;;31.87;14.47;;;;;;;10.39;88.22;102315.66;5016219;28;20212;-63
2022/11/12 00:43:16;;;;;;;28.47;12.90;;;;;;;10.45;87.64;102321.44;5012631;28;20204;-63
2022/11/12 00:45:43;;;;;;;27.53;12.33;;;;;;;10.40;88.13;102314.72;5013621;28;20270;-63
2022/11/12 00:48:11;;;;;;;28.90;14.13;;;;;;;10.45;88.16;102324.09;5008799;28;20200;-64
2022/11/12 00:50:39;;;;;;;30.23;13.50;;;;;;;10.40;88.44;102317.38;5014646;28;20299;-64
2022/11/12 00:53:08;;;;;;;26.27;12.07;;;;;;;10.42;88.86;102318.13;5016401;28;20286;-63
2022/11/12 00:55:35;;;;;;;26.53;12.17;;;;;;;10.41;88.88;102316.41;5016633;28;20353;-64
2022/11/12 00:58:03;;;;;;;27.90;12.43;;;;;;;10.45;88.54;102309.97;5011448;28;20213;-63
2022/11/12 01:00:30;;;;;;;26.87;12.87;;;;;;;10.46;88.31;102311.66;5008296;28;20643;-63
2022/11/12 01:02:58;;;;;;;28.40;13.37;;;;;;;10.42;88.74;102318.97;5015120;28;20201;-63
2022/11/12 01:05:26;;;;;;;25.30;11.43;;;;;;;10.38;89.39;102314.81;5008872;28;20361;-63
2022/11/12 01:07:53;;;;;;;25.70;12.63;;;;;;;10.39;89.26;102315.66;5012722;28;20224;-63
2022/11/12 01:10:24;;;;;;;27.60;12.00;;;;;;;10.36;89.38;102315.88;5009422;28;20749;-63
2022/11/12 01:12:51;;;;;;;24.17;11.93;;;;;;;10.42;89.43;102310.16;5015136;28;20721;-63
2022/11/12 01:15:19;;;;;;;23.67;11.37;;;;;;;10.50;88.76;102313.16;5012260;28;20213;-63
2022/11/12 01:17:47;;;;;;;28.73;12.07;;;;;;;10.44;88.99;102308.25;5012102;28;20593;-63
2022/11/12 01:20:14;;;;;;;25.50;11.87;;;;;;;10.43;89.29;102306.56;5009119;28;20216;-63
2022/11/12 01:22:42;;;;;;;25.90;12.23;;;;;;;10.44;89.24;102308.25;5013680;28;20259;-64
2022/11/12 01:25:10;;;;;;;22.73;11.37;;;;;;;10.49;89.01;102312.28;5014012;28;20308;-63
2022/11/12 01:27:39;;;;;;;20.77;10.60;;;;;;;10.52;88.40;102313.91;5015754;28;20693;-64
2022/11/12 01:30:07;;;;;;;25.93;12.07;;;;;;;10.56;88.25;102310.06;5014679;28;20255;-63
2022/11/12 01:32:36;;;;;;;24.77;11.37;;;;;;;10.51;88.27;102305.09;5015214;28;20887;-63
2022/11/12 01:35:04;;;;;;;22.43;10.40;;;;;;;10.54;88.61;102304.91;5019391;28;20207;-62
2022/11/12 01:37:31;;;;;;;26.93;12.53;;;;;;;10.53;88.50;102312.94;5009601;28;20259;-61
2022/11/12 01:39:59;;;;;;;25.80;12.20;;;;;;;10.46;88.57;102301.06;5014422;28;20483;-62
2022/11/12 01:42:29;;;;;;;24.30;12.27;;;;;;;10.35;89.18;102293.81;5014114;28;20229;-62
2022/11/12 01:44:58;;;;;;;23.43;11.83;;;;;;;10.42;89.37;102294.25;5014835;28;20239;-62
2022/11/12 01:47:29;;;;;;;26.87;12.33;;;;;;;10.46;88.98;102299.25;5012802;28;20240;-63
2022/11/12 01:50:00;;;;;;;23.00;11.13;;;;;;;10.46;88.89;102295.75;5011588;28;20220;-62
2022/11/12 01:52:33;;;;;;;22.80;10.90;;;;;;;10.50;88.67;102298.09;5009818;28;21958;-62
2022/11/12 01:55:04;;;;;;;21.23;10.53;;;;;;;10.49;89.04;102295.53;5011277;28;20213;-62
2022/11/12 01:57:38;;;;;;;22.73;10.73;;;;;;;10.51;88.63;102293.63;5011470;28;20632;-63
2022/11/12 02:00:11;;;;;;;20.90;10.13;;;;;;;10.48;88.60;102293.81;5014785;28;20613;-62
2022/11/12 02:02:40;;;;;;;21.77;10.03;;;;;;;10.53;88.21;102291.72;5016552;28;20225;-62
2022/11/12 02:05:10;;;;;;;23.73;10.90;;;;;;;10.47;88.38;102297.44;5014268;28;20209;-62
2022/11/12 02:07:42;;;;;;;20.20;10.17;;;;;;;10.44;88.79;102297.66;5012640;28;20267;-63
2022/11/12 02:10:10;;;;;;;21.73;9.83;;;;;;;10.45;88.57;102296.72;5014419;28;20292;-63
2022/11/12 02:15:25;;;;;;;20.77;10.07;;;;;;;10.51;87.65;102293.63;5017280;28;20727;-63
2022/11/12 02:17:53;;;;;;;20.53;9.83;;;;;;;10.54;87.28;102307.56;5014589;28;20209;-63
2022/11/12 02:20:21;;;;;;;20.33;10.00;;;;;;;10.52;86.74;102301.50;5016524;28;20775;-63
2022/11/12 02:22:50;;;;;;;21.80;10.53;;;;;;;10.52;86.90;102300.63;5016036;28;20658;-62
2022/11/12 02:25:21;;;;;;;23.00;10.70;;;;;;;10.52;86.79;102301.50;5013393;28;20643;-63
2022/11/12 02:27:50;;;;;;;25.53;10.30;;;;;;;10.54;86.66;102304.03;5019574;28;20205;-63
2022/11/12 02:30:19;;;;;;;23.93;10.43;;;;;;;10.50;86.51;102302.53;5015201;28;20208;-63
2022/11/12 02:32:46;;;;;;;20.33;10.23;;;;;;;10.42;87.25;102296.91;5012423;28;20213;-63
2022/11/12 02:35:14;;;;;;;22.50;10.67;;;;;;;10.36;87.72;102290.22;5011735;28;20232;-63
2022/11/12 02:37:42;;;;;;;23.33;10.87;;;;;;;10.34;88.37;102294.75;5011360;28;20206;-62
2022/11/12 02:40:11;;;;;;;22.93;10.73;;;;;;;10.38;88.22;102282.97;5009239;28;20213;-63
2022/11/12 02:42:38;;;;;;;24.37;11.17;;;;;;;10.51;87.68;102285.69;5010700;28;20251;-63
2022/11/12 02:45:07;;;;;;;24.93;10.13;;;;;;;10.54;86.88;102288.13;5008391;28;20279;-63
2022/11/12 02:47:34;;;;;;;23.43;11.00;;;;;;;10.57;86.59;102282.59;5006663;28;20685;-63
2022/11/12 02:50:02;;;;;;;27.17;12.47;;;;;;;10.53;86.94;102275.81;5005733;28;20236;-63
2022/11/12 02:52:31;;;;;;;21.43;10.67;;;;;;;10.50;87.11;102276.00;5012684;28;20710;-64
2022/11/12 02:54:58;;;;;;;21.60;9.63;;;;;;;10.52;86.72;102277.63;5011239;28;20291;-63
2022/11/12 02:57:29;;;;;;;24.90;10.27;;;;;;;10.50;87.02;102281.31;5015028;28;20212;-64
2022/11/12 02:59:56;;;;;;;22.33;9.80;;;;;;;10.44;87.15;102273.78;5016134;28;20221;-63
2022/11/12 03:02:24;;;;;;;22.47;10.90;;;;;;;10.46;87.03;102274.53;5009585;28;21812;-62
2022/11/12 03:04:51;;;;;;;20.30;9.90;;;;;;;10.46;86.95;102271.88;5008204;28;20251;-63
2022/11/12 03:07:19;;;;;;;20.37;9.73;;;;;;;10.44;86.98;102265.81;5011678;28;20213;-63
2022/11/12 03:09:47;;;;;;;20.80;9.50;;;;;;;10.47;86.99;102273.56;5008790;28;20304;-62
2022/11/12 03:12:14;;;;;;;17.60;8.87;;;;;;;10.46;86.72;102271.88;5008378;28;20204;-62
2022/11/12 03:14:43;;;;;;;18.07;8.07;;;;;;;10.46;86.72;102270.09;5012971;28;20235;-63
2022/11/12 03:17:11;;;;;;;16.60;7.87;;;;;;;10.48;86.36;102268.16;5013070;28;20594;-64
2022/11/12 03:19:38;;;;;;;16.73;8.03;;;;;;;10.43;86.54;102272.09;5012521;28;20215;-64
2022/11/12 03:22:06;;;;;;;16.13;7.80;;;;;;;10.38;87.06;102276.84;5015097;28;20832;-63
2022/11/12 03:24:34;;;;;;;16.33;7.40;;;;;;;10.45;86.93;102283.44;5015367;28;20405;-64
2022/11/12 03:27:01;;;;;;;13.17;7.63;;;;;;;10.44;86.68;102279.94;5006116;28;20208;-63
2022/11/12 03:29:29;;;;;;;14.63;7.07;;;;;;;10.43;86.64;102282.69;5010264;28;20256;-64
2022/11/12 03:31:58;;;;;;;14.97;8.30;;;;;;;10.37;86.97;102277.81;5012219;28;20200;-64
2022/11/12 03:34:26;;;;;;;13.13;8.23;;;;;;;10.31;87.23;102276.41;5015709;28;20229;-64
2022/11/12 03:36:53;;;;;;;12.77;7.80;;;;;;;10.28;87.50;102275.78;5008405;28;20859;-62
2022/11/12 03:39:21;;;;;;;16.30;7.57;;;;;;;10.28;87.70;102278.41;5007620;28;20213;-64
2022/11/12 03:41:48;;;;;;;13.63;7.20;;;;;;;10.32;87.61;102277.25;5007859;28;20217;-63
2022/11/12 03:44:16;;;;;;;13.07;7.83;;;;;;;10.36;87.12;102273.44;5009362;28;20240;-64
2022/11/12 03:46:44;;;;;;;13.00;7.27;;;;;;;10.40;86.61;102267.81;5009782;28;20213;-63
2022/11/12 03:49:13;;;;;;;14.07;7.10;;;;;;;10.41;86.09;102266.88;5009222;28;20214;-63
2022/11/12 03:51:40;;;;;;;14.97;8.07;;;;;;;10.37;86.13;102275.16;5014850;28;20269;-64
2022/11/12 03:54:08;;;;;;;15.80;8.30;;;;;;;10.32;86.39;102271.94;5011632;28;20322;-64
2022/11/12 03:56:36;;;;;;;19.40;8.20;;;;;;;10.30;86.05;102265.88;5011983;28;20229;-63
2022/11/12 03:59:04;;;;;;;14.03;7.57;;;;;;;10.26;86.28;102267.06;5012670;28;20820;-63
2022/11/12 04:01:32;;;;;;;14.50;8.23;;;;;;;10.28;86.64;102265.16;5011651;28;20217;-63
2022/11/12 04:03:59;;;;;;;20.77;7.77;;;;;;;10.33;86.26;102255.94;5011646;28;20219;-63
2022/11/12 04:09:14;;;;;;;17.90;7.90;;;;;;;10.22;86.30;102249.63;5005009;28;20235;-63
2022/11/12 04:11:41;;;;;;;13.60;7.60;;;;;;;10.13;86.55;102251.94;5012408;28;20634;-63
2022/11/12 04:14:08;;;;;;;14.87;7.27;;;;;;;10.13;86.98;102241.31;5007955;28;20291;-63
2022/11/12 04:22:11;;;;;;;10.83;6.10;;;;;;;10.24;86.16;102245.09;5008528;28;20704;-63
2022/11/12 04:27:27;;;;;;;11.10;5.93;;;;;;;10.29;85.40;102259.72;5007491;28;20260;-63
2022/11/12 04:32:47;;;;;;;14.03;5.77;;;;;;;10.20;85.76;102256.88;5014396;28;20683;-63
2022/11/12 04:35:14;;;;;;;11.57;6.50;;;;;;;10.26;85.54;102257.31;5011885;28;20274;-63
2022/11/12 04:37:44;;;;;;;14.97;6.50;;;;;;;10.27;85.25;102264.31;5010702;28;20262;-63
2022/11/12 04:45:50;;;;;;;12.70;6.43;;;;;;;10.28;84.82;102259.84;5009812;28;20202;-63
2022/11/12 04:48:18;;;;;;;14.20;6.80;;;;;;;10.28;85.18;102254.56;5016972;28;20205;-63
2022/11/12 04:50:49;;;;;;;36.63;6.73;;;;;;;10.31;84.87;102256.97;5017089;28;20753;-63
2022/11/12 04:53:18;;;;;;;21.60;8.87;;;;;;;10.24;85.17;102253.91;5012913;28;20565;-62
2022/11/12 04:55:49;;;;;;;13.57;7.57;;;;;;;10.23;85.36;102259.31;5008426;28;20295;-63
2022/11/12 04:58:17;;;;;;;12.07;7.73;;;;;;;10.15;85.67;102255.31;5018169;28;20258;-63
2022/11/12 05:00:44;;;;;;;13.87;6.63;;;;;;;10.21;85.44;102253.25;5018121;28;20209;-63
2022/11/12 05:03:12;;;;;;;12.70;7.03;;;;;;;10.21;85.32;102250.59;5021917;28;20270;-63
2022/11/12 05:05:40;;;;;;;12.13;6.97;;;;;;;10.17;85.47;102258.78;5020260;28;20213;-63
2022/11/12 05:08:07;;;;;;;13.07;6.47;;;;;;;10.19;84.91;102261.31;5013357;28;20232;-66
2022/11/12 05:10:36;;;;;;;10.90;6.07;;;;;;;10.05;84.60;102264.84;5015383;28;20253;-63
2022/11/12 05:13:04;;;;;;;50.03;8.63;;;;;;;10.04;85.61;102270.25;5015427;28;20229;-63
2022/11/12 05:15:33;;;;;;;16.37;8.13;;;;;;;9.96;85.89;102270.75;5014638;28;20232;-63
2022/11/12 05:18:00;;;;;;;17.83;7.90;;;;;;;10.02;85.79;102265.06;5014212;28;20248;-63
2022/11/12 05:20:28;;;;;;;16.87;7.83;;;;;;;10.02;85.57;102274.81;5007825;28;20709;-63
2022/11/12 05:22:55;;;;;;;15.23;7.57;;;;;;;10.01;85.39;102276.63;5012816;28;20829;-63
2022/11/12 05:25:34;;;;;;;15.40;7.30;;;;;;;10.02;85.09;102280.97;5007783;28;20212;-63
2022/11/12 05:28:03;;;;;;;18.33;7.93;;;;;;;9.89;85.31;102279.19;5014983;28;20221;-63
2022/11/12 05:30:34;;;;;;;16.50;8.23;;;;;;;9.84;85.68;102276.00;5012122;28;20262;-63
2022/11/12 05:33:01;;;;;;;16.53;7.03;;;;;;;9.90;85.73;102281.75;5014636;28;20215;-63
2022/11/12 05:35:29;;;;;;;14.77;7.43;;;;;;;9.98;85.29;102284.75;5010203;28;20718;-62
2022/11/12 05:37:56;;;;;;;12.07;6.23;;;;;;;9.96;85.27;102284.00;5008425;28;20205;-63
2022/11/12 05:40:24;;;;;;;11.53;6.10;;;;;;;9.91;85.06;102287.91;5010268;28;20216;-63
2022/11/12 05:42:52;;;;;;;12.07;5.10;;;;;;;9.87;85.29;102287.25;5010920;28;20205;-63
2022/11/12 05:45:21;;;;;;;9.83;5.00;;;;;;;9.82;85.63;102281.41;5010299;28;20211;-63
2022/11/12 05:47:48;;;;;;;9.03;5.07;;;;;;;9.83;85.64;102280.47;5011875;28;20271;-63
2022/11/12 05:50:16;;;;;;;8.80;5.07;;;;;;;9.76;85.54;102287.94;5011879;28;20236;-63
2022/11/12 05:52:45;;;;;;;13.63;5.70;;;;;;;9.74;85.71;102291.66;5015706;28;20220;-63
2022/11/12 05:55:12;;;;;;;9.07;5.40;;;;;;;9.78;85.77;102283.38;5010289;28;20286;-62
2022/11/12 05:57:40;;;;;;;9.73;5.50;;;;;;;9.76;85.53;102295.06;5012274;28;20583;-64
2022/11/12 06:00:09;;;;;;;9.70;5.23;;;;;;;9.75;85.87;102293.34;5012092;28;20904;-63
2022/11/12 06:02:38;;;;;;;9.13;5.00;;;;;;;9.73;85.91;102284.66;5013297;28;20226;-63
2022/11/12 06:05:07;;;;;;;8.53;4.37;;;;;;;9.78;85.81;102287.84;5018725;28;20299;-63
2022/11/12 06:07:34;;;;;;;10.50;4.40;;;;;;;9.85;85.15;102296.28;5013374;28;20267;-63
2022/11/12 06:10:02;;;;;;;7.47;4.20;;;;;;;9.81;85.19;102293.81;5010277;28;20239;-62
2022/11/12 06:12:30;;;;;;;12.00;5.57;;;;;;;9.81;84.54;102290.31;5013703;28;20258;-62
2022/11/12 06:14:57;;;;;;;8.77;4.93;;;;;;;9.80;84.69;102291.25;5017506;28;20224;-62
2022/11/12 06:17:25;;;;;;;8.33;4.33;;;;;;;9.82;84.30;102286.72;5023548;28;20216;-63
2022/11/12 06:19:54;;;;;;;11.03;4.57;;;;;;;9.79;84.28;102290.41;5019481;28;20568;-63
2022/11/12 06:22:22;;;;;;;8.00;3.87;;;;;;;9.77;83.95;102296.72;5011746;28;20785;-63
2022/11/12 06:24:49;;;;;;;11.53;5.00;;;;;;;9.75;83.90;102296.84;5019886;28;20216;-63
2022/11/12 06:27:17;;;;;;;9.93;4.70;;;;;;;9.78;83.59;102294.00;5013137;28;20212;-63
2022/11/12 06:29:44;;;;;;;10.37;4.43;;;;;;;9.80;83.14;102291.25;5017586;28;20226;-62
2022/11/12 06:32:12;;;;;;;12.23;4.40;;;;;;;9.71;83.47;102298.00;5013017;28;20220;-62
2022/11/12 06:34:40;;;;;;;8.37;4.53;;;;;;;9.65;83.97;102292.25;5013524;28;20723;-63
2022/11/12 06:37:09;;;;;;;10.93;4.03;;;;;;;9.70;83.95;102295.44;5016535;28;20291;-63
2022/11/12 06:39:36;;;;;;;7.87;4.53;;;;;;;9.77;83.57;102294.09;5011475;28;20232;-62
2022/11/12 06:42:04;;;;;;;8.43;4.30;;;;;;;9.72;83.42;102293.53;5016016;28;20259;-62
2022/11/12 06:44:32;;;;;;;14.73;4.10;;;;;;;9.69;83.65;102296.38;5009138;28;20674;-64
2022/11/12 06:46:59;;;;;;;10.23;4.50;;;;;;;9.76;83.11;102298.53;5014735;28;20216;-63
2022/11/12 06:49:27;;;;;;;11.40;4.53;;;;;;;9.74;83.08;102296.94;5013343;28;20216;-64
2022/11/12 06:51:55;;;;;;;9.70;4.63;;;;;;;9.68;83.60;102302.63;5010047;28;20600;-61
2022/11/12 06:54:24;;;;;;;10.27;4.73;;;;;;;9.62;84.24;102303.88;5010959;28;20220;-64
2022/11/12 06:56:51;;;;;;;12.67;5.17;;;;;;;9.65;84.42;102305.47;5012922;28;20739;-62
2022/11/12 06:59:19;;;;;;;15.43;5.30;;;;;;;9.72;83.96;102304.13;5006832;28;20269;-62
2022/11/12 07:01:47;;;;;;;10.57;5.93;;;;;;;9.79;83.60;102310.75;5010566;28;20208;-63
2022/11/12 07:04:15;;;;;;;11.83;5.67;;;;;;;9.77;83.26;102313.47;5012332;28;20217;-62
2022/11/12 07:06:42;;;;;;;12.87;5.43;;;;;;;9.71;83.88;102305.94;5008741;28;20217;-63
2022/11/12 07:09:10;;;;;;;31.53;6.37;;;;;;;9.73;83.92;102305.84;5007467;28;20323;-62
2022/11/12 07:11:39;;;;;;;16.80;6.03;;;;;;;9.71;83.54;102308.59;5011246;28;20708;-62
2022/11/12 07:14:07;;;;;;;15.40;6.47;;;;;;;9.69;83.85;102314.91;5005310;28;20216;-62
2022/11/12 07:16:35;;;;;;;14.83;5.97;;;;;;;9.73;83.97;102311.16;5009059;28;20240;-63
2022/11/12 07:19:03;;;;;;;11.77;6.03;;;;;;;9.63;84.12;102310.03;5012032;28;20213;-62
2022/11/12 07:21:31;;;;;;;13.17;6.40;;;;;;;9.50;85.08;102307.28;5017608;28;20212;-62
2022/11/12 07:23:58;;;;;;;11.57;6.97;;;;;;;9.54;85.64;102305.31;5014652;28;20209;-63
2022/11/12 07:26:29;;;;;;;16.10;7.53;;;;;;;9.54;85.15;102302.66;5011443;28;20650;-62
2022/11/12 07:28:58;;;;;;;13.93;6.80;;;;;;;9.61;84.70;102301.31;5014598;28;20217;-63
2022/11/12 07:31:25;;;;;;;10.13;6.00;;;;;;;9.56;85.05;102300.78;5012392;28;20204;-63
2022/11/12 07:33:53;;;;;;;13.17;7.43;;;;;;;9.50;85.86;102298.53;5020087;28;20604;-63
2022/11/12 07:36:21;;;;;;;11.53;6.10;;;;;;;9.48;86.07;102308.34;5012849;28;20239;-63
2022/11/12 07:38:53;;;;;;;11.00;6.60;;;;;;;9.52;85.74;102301.91;5016731;28;20213;-63
2022/11/12 07:41:22;;;;;;;12.70;7.30;;;;;;;9.62;85.10;102303.88;5020477;28;20218;-62
2022/11/12 07:43:52;;;;;;;10.77;6.80;;;;;;;9.64;84.98;102309.09;5015656;28;20235;-64
2022/11/12 07:46:23;;;;;;;14.13;7.33;;;;;;;9.73;84.45;102313.78;5013852;28;20221;-63
2022/11/12 07:48:51;;;;;;;14.20;6.30;;;;;;;9.76;84.03;102308.31;5008093;28;20213;-64
2022/11/12 07:51:20;;;;;;;10.83;6.87;;;;;;;9.74;84.16;102304.91;5009904;28;20224;-62
2022/11/12 07:53:49;;;;;;;12.40;6.73;;;;;;;9.76;84.20;102300.34;5011436;28;20213;-64
2022/11/12 07:56:26;;;;;;;15.07;7.33;;;;;;;9.79;83.88;102301.00;5014194;28;20225;-63
2022/11/12 07:58:53;;;;;;;14.40;8.00;;;;;;;9.76;83.69;102305.66;5009969;28;20212;-62
2022/11/12 08:01:30;;;;;;;15.13;8.70;;;;;;;9.75;83.89;102306.59;5011057;28;20213;-62
2022/11/12 08:03:58;;;;;;;15.20;7.43;;;;;;;9.76;83.96;102297.72;5013342;28;20234;-62
2022/11/12 08:06:26;;;;;;;13.83;7.00;;;;;;;9.65;84.09;102297.53;5012233;28;20262;-61
2022/11/12 08:08:54;;;;;;;12.33;7.37;;;;;;;9.51;85.23;102305.50;5012416;28;20279;-62
2022/11/12 08:11:23;;;;;;;12.67;7.53;;;;;;;9.53;85.57;102300.94;5010635;28;20717;-63
2022/11/12 08:13:51;;;;;;;15.47;7.03;;;;;;;9.54;85.67;102306.16;5013775;28;20213;-63
2022/11/12 08:16:19;;;;;;;16.20;7.50;;;;;;;9.55;85.70;102313.16;5015959;28;20240;-63
2022/11/12 08:18:48;;;;;;;11.43;6.73;;;;;;;9.47;86.02;102310.16;5016497;28;20625;-63
2022/11/12 08:21:17;;;;;;;17.50;6.63;;;;;;;9.48;86.20;102311.84;5012405;28;20212;-63
2022/11/12 08:23:45;;;;;;;10.80;6.70;;;;;;;9.46;86.21;102319.03;5015957;28;20673;-63
2022/11/12 08:26:14;;;;;;;9.20;5.63;;;;;;;9.47;86.36;102323.38;5015107;28;20917;-63
2022/11/12 08:28:42;;;;;;;9.00;5.50;;;;;;;9.46;86.20;102320.84;5016698;28;20205;-62
2022/11/12 08:31:12;;;;;;;8.30;5.30;;;;;;;9.49;85.84;102313.56;5019308;28;20219;-63
2022/11/12 08:33:40;;;;;;;8.63;5.73;;;;;;;9.53;85.80;102317.69;5010097;28;20221;-63
2022/11/12 08:36:12;;;;;;;8.03;5.27;;;;;;;9.58;85.68;102317.44;5012593;28;20975;-63
2022/11/12 08:38:41;;;;;;;8.90;5.30;;;;;;;9.63;85.39;102312.66;5014078;28;20213;-63
2022/11/12 08:41:11;;;;;;;8.03;4.87;;;;;;;9.60;85.41;102315.50;5014544;28;20217;-63
2022/11/12 08:43:40;;;;;;;8.77;5.03;;;;;;;9.61;85.08;102319.84;5019342;28;20209;-63
2022/11/12 08:46:08;;;;;;;7.50;4.63;;;;;;;9.59;85.31;102314.66;5013287;28;20215;-63
2022/11/12 08:48:38;;;;;;;8.77;5.13;;;;;;;9.62;85.31;102326.84;5010493;28;20213;-63
2022/11/12 08:51:07;;;;;;;7.50;4.80;;;;;;;9.68;85.11;102326.47;5017417;28;20209;-62
2022/11/12 08:53:36;;;;;;;7.93;4.83;;;;;;;9.73;84.87;102322.59;5011393;28;21028;-63
2022/11/12 08:56:04;;;;;;;9.27;5.77;;;;;;;9.78;84.54;102317.84;5019502;28;20214;-63
2022/11/12 08:58:32;;;;;;;8.87;5.57;;;;;;;9.72;84.29;102315.59;5011579;28;20201;-63
2022/11/12 09:01:04;;;;;;;10.00;5.03;;;;;;;9.76;84.06;102321.56;5010405;28;20773;-63
2022/11/12 09:03:32;;;;;;;9.50;5.17;;;;;;;9.80;83.64;102323.91;5011904;28;20808;-64
2022/11/12 09:06:02;;;;;;;8.37;4.33;;;;;;;9.79;83.15;102319.53;5013791;28;20224;-64
2022/11/12 09:08:33;;;;;;;7.27;4.43;;;;;;;9.82;83.01;102323.81;5013592;28;20207;-63
2022/11/12 09:11:02;;;;;;;7.67;4.93;;;;;;;9.85;82.69;102328.88;5011348;28;20232;-63
2022/11/12 09:13:30;;;;;;;9.10;5.10;;;;;;;9.91;82.19;102327.66;5012574;28;20213;-63
2022/11/12 09:16:03;;;;;;;8.40;5.30;;;;;;;9.91;82.30;102320.56;5011082;28;20266;-62
2022/11/12 09:18:32;;;;;;;10.87;5.73;;;;;;;9.95;82.25;102327.34;5015466;28;20248;-63
2022/11/12 09:21:02;;;;;;;8.30;5.40;;;;;;;9.98;81.87;102329.81;5012075;28;20706;-64
2022/11/12 09:23:30;;;;;;;7.83;5.07;;;;;;;10.02;81.80;102333.97;5010686;28;20217;-63
2022/11/12 09:25:57;;;;;;;8.10;5.07;;;;;;;10.02;81.73;102328.69;5013955;28;20208;-63
2022/11/12 09:28:26;;;;;;;7.47;4.80;;;;;;;10.01;82.15;102326.97;5012877;28;20197;-63
2022/11/12 09:30:55;;;;;;;9.13;4.97;;;;;;;10.02;82.49;102318.06;5017664;28;20217;-61
2022/11/12 09:33:25;;;;;;;8.33;5.67;;;;;;;10.00;82.00;102324.41;5009824;28;20220;-61
2022/11/12 09:35:54;;;;;;;8.67;5.90;;;;;;;9.93;82.45;102315.16;5015270;28;20856;-61
2022/11/12 09:38:22;;;;;;;7.47;4.87;;;;;;;9.92;82.84;102324.06;5008859;28;20637;-61
2022/11/12 09:41:17;;;;;;;8.97;5.97;;;;;;;10.00;81.66;102327.06;5007205;28;20206;-61
2022/11/12 09:43:50;;;;;;;8.27;5.07;;;;;;;10.00;81.83;102319.13;5010710;28;20232;-61
2022/11/12 09:46:36;;;;;;;8.97;5.27;;;;;;;10.04;82.01;102321.44;5014708;28;20239;-61
2022/11/12 09:49:12;;;;;;;8.43;4.83;;;;;;;10.06;82.07;102319.56;5012026;28;20314;-61
2022/11/12 09:51:46;;;;;;;7.80;5.23;;;;;;;10.02;82.31;102315.44;5017424;28;20217;-62
2022/11/12 09:54:24;;;;;;;8.90;5.37;;;;;;;10.01;82.88;102319.03;5013357;28;20212;-61
2022/11/12 09:56:53;;;;;;;9.60;5.50;;;;;;;9.98;83.15;102319.22;5018281;28;20646;-61
2022/11/12 09:59:26;;;;;;;8.63;5.27;;;;;;;9.91;83.46;102309.97;5010466;28;20209;-61
2022/11/12 10:02:01;;;;;;;10.13;5.40;;;;;;;9.94;83.63;102319.53;5014335;28;21026;-61
2022/11/12 10:04:55;;;;;;;7.80;5.07;;;;;;;9.97;83.39;102314.84;5015740;28;20209;-61
2022/11/12 10:07:39;;;;;;;7.43;4.97;;;;;;;9.98;83.11;102305.97;5013720;28;20289;-62
2022/11/12 10:10:14;;;;;;;9.23;6.10;;;;;;;10.01;83.10;102305.78;5017073;28;20256;-62
2022/11/12 10:12:59;;;;;;;9.63;5.70;;;;;;;10.06;83.21;102305.44;5010710;28;20201;-61
2022/11/12 10:18:45;;;;;;;8.50;5.67;;;;;;;9.99;82.90;102299.72;4980722;28;20241;-61
2022/11/12 10:21:31;;;;;;;8.93;4.93;;;;;;;10.02;83.23;102296.03;5011483;28;20225;-61
2022/11/12 10:24:00;;;;;;;8.83;5.83;;;;;;;10.04;83.52;102302.91;5015499;28;20584;-61
2022/11/12 10:26:31;;;;;;;10.13;5.90;;;;;;;10.09;83.58;102292.00;5025046;28;20213;-60
2022/11/12 10:29:08;;;;;;;10.70;6.70;;;;;;;10.11;83.07;102290.94;5021426;28;20219;-61
2022/11/12 10:31:37;;;;;;;10.57;6.03;;;;;;;10.11;83.29;102288.28;5015990;28;20262;-61
2022/11/12 10:34:18;;;;;;;11.97;7.13;;;;;;;10.13;83.73;102293.50;5021978;28;20232;-59
2022/11/12 10:36:50;;;;;;;12.00;6.50;;;;;;;10.12;83.84;102282.03;5017775;28;20209;-61
2022/11/12 10:39:33;;;;;;;13.20;7.00;;;;;;;10.19;83.57;102290.50;5013638;28;20643;-61
2022/11/12 10:42:06;;;;;;;9.43;6.13;;;;;;;10.18;83.12;102292.28;5013765;28;20309;-61
2022/11/12 10:44:34;;;;;;;10.63;6.33;;;;;;;10.25;82.87;102289.22;5016221;28;20819;-60
2022/11/12 10:47:26;;;;;;;10.80;6.57;;;;;;;10.28;82.31;102289.03;5024747;28;20222;-61
2022/11/12 10:50:16;;;;;;;9.70;6.20;;;;;;;10.23;82.15;102281.38;5017455;28;20304;-61
2022/11/12 10:52:54;;;;;;;10.27;6.33;;;;;;;10.26;81.94;102281.16;5010878;28;20236;-61
2022/11/12 10:55:24;;;;;;;10.43;6.30;;;;;;;10.25;82.23;102281.28;5012429;28;20209;-61
2022/11/12 10:58:18;;;;;;;11.57;5.80;;;;;;;10.31;82.03;102275.53;5005730;28;20273;-61
2022/11/12 11:00:58;;;;;;;11.23;6.73;;;;;;;10.36;81.59;102284.06;5008617;28;20749;-61
2022/11/12 11:03:30;;;;;;;10.50;6.90;;;;;;;10.35;82.04;102279.69;5005820;28;20201;-62
2022/11/12 11:06:01;;;;;;;12.43;7.53;;;;;;;10.38;81.96;102272.38;5013998;28;20206;-59
2022/11/12 11:08:38;;;;;;;11.90;7.00;;;;;;;10.31;82.45;102270.25;5010968;28;20204;-62
2022/11/12 11:11:22;;;;;;;12.77;7.00;;;;;;;10.35;82.97;102277.06;5009089;28;20237;-61
2022/11/12 11:13:52;;;;;;;11.70;7.30;;;;;;;10.36;82.53;102274.31;5013222;28;20216;-62
2022/11/12 11:16:24;;;;;;;10.43;6.67;;;;;;;10.42;82.08;102278.34;5012156;28;20201;-60
2022/11/12 11:19:03;;;;;;;10.70;7.17;;;;;;;10.41;81.93;102273.97;5009842;28;20231;-61
2022/11/12 11:22:01;;;;;;;10.03;6.37;;;;;;;10.45;81.46;102276.34;5014302;28;20445;-61
2022/11/12 11:24:38;;;;;;;10.73;5.70;;;;;;;10.43;81.23;102270.28;5000177;28;20213;-61
2022/11/12 11:27:18;;;;;;;9.73;6.60;;;;;;;10.52;80.52;102274.13;5009735;28;20209;-62
2022/11/12 11:30:01;;;;;;;10.17;6.60;;;;;;;10.49;80.48;102271.66;5020184;28;20204;-63
2022/11/12 11:32:53;;;;;;;12.10;7.37;;;;;;;10.48;80.85;102267.31;5010260;28;20590;-62
2022/11/12 11:35:28;;;;;;;11.80;7.50;;;;;;;10.53;80.67;102268.72;5010638;28;20202;-61
2022/11/12 11:38:14;;;;;;;11.07;7.63;;;;;;;10.56;80.22;102265.81;5014710;28;20584;-61
2022/11/12 11:40:51;;;;;;;17.03;8.13;;;;;;;10.50;80.70;102255.63;5006761;28;20276;-61
2022/11/12 11:43:40;;;;;;;13.87;8.20;;;;;;;10.55;80.79;102258.00;5006976;28;20213;-62
2022/11/12 11:46:16;;;;;;;11.37;7.87;;;;;;;10.53;80.48;102263.41;5012395;28;20607;-61
2022/11/12 11:49:02;;;;;;;13.70;8.43;;;;;;;10.46;81.04;102266.59;5009511;28;20266;-61
2022/11/12 11:51:40;;;;;;;14.17;8.70;;;;;;;10.46;81.42;102259.47;5017796;28;20204;-61
2022/11/12 11:54:26;;;;;;;13.27;8.90;;;;;;;10.49;81.47;102256.59;5019899;28;20211;-61
2022/11/12 11:56:59;;;;;;;14.77;9.63;;;;;;;10.48;81.60;102257.53;5015646;28;20229;-61
2022/11/12 11:59:38;;;;;;;14.50;9.10;;;;;;;10.54;81.39;102248.34;5014291;28;20684;-63